Time;durP1;ratioP1;P1;durP2;ratioP2;P2;SDS_P1;SDS_P2;PMS_P1;PMS_P2;Temp;Humidity;BMP_temperature;BMP_pressure;BME280_temperature;BME280_humidity;BME280_pressure;Samples;Min_cycle;Max_cycle;Signal;HPM_P1;HPM_P2
2021/04/03 00:00:56;;;;;;;3.97;3.30;;;;;;;4.03;59.09;98346.22;5000274;28;20248;-65
2021/04/03 00:03:24;;;;;;;3.83;3.53;;;;;;;3.93;59.43;98345.25;5000082;28;20228;-65
2021/04/03 00:05:52;;;;;;;9.07;3.63;;;;;;;3.90;59.73;98349.78;5002497;28;20213;-65
2021/04/03 00:08:20;;;;;;;6.70;4.10;;;;;;;3.90;59.72;98344.53;5001274;28;20201;-65
2021/04/03 00:10:50;;;;;;;5.70;3.43;;;;;;;3.87;59.98;98346.53;5001853;28;20216;-67
2021/04/03 00:13:18;;;;;;;7.70;3.77;;;;;;;3.88;59.73;98351.66;5001247;28;20228;-65
2021/04/03 00:15:45;;;;;;;3.73;3.33;;;;;;;3.81;59.69;98342.59;5000980;28;20216;-66
2021/04/03 00:18:13;;;;;;;5.57;3.47;;;;;;;3.81;59.93;98339.13;5000256;28;20212;-65
2021/04/03 00:20:40;;;;;;;4.50;3.83;;;;;;;3.83;59.60;98340.69;4998260;28;20209;-66
2021/04/03 00:23:07;;;;;;;9.40;3.67;;;;;;;3.76;59.95;98342.91;5001319;28;20228;-67
2021/04/03 00:25:34;;;;;;;3.77;3.40;;;;;;;3.82;59.60;98341.63;4998419;28;20200;-65
2021/04/03 00:28:04;;;;;;;4.73;3.50;;;;;;;3.79;59.85;98347.13;5002047;28;20212;-64
2021/04/03 00:30:31;;;;;;;5.00;3.53;;;;;;;3.79;60.26;98338.41;4998849;28;20396;-67
2021/04/03 00:33:03;;;;;;;9.03;3.77;;;;;;;3.79;60.19;98339.25;4998230;28;20259;-65
2021/04/03 00:35:31;;;;;;;6.57;3.53;;;;;;;3.83;59.83;98342.47;4998947;28;20873;-67
2021/04/03 00:37:59;;;;;;;3.43;3.13;;;;;;;3.80;60.33;98348.78;4997385;28;20208;-65
2021/04/03 00:40:28;;;;;;;3.70;3.40;;;;;;;3.82;60.21;98352.13;4997858;28;20211;-66
2021/04/03 00:42:56;;;;;;;6.17;3.03;;;;;;;3.57;60.46;98345.19;4999400;28;20233;-65
2021/04/03 00:45:24;;;;;;;4.23;3.83;;;;;;;3.64;60.48;98346.44;4999975;28;20212;-65
2021/04/03 00:47:51;;;;;;;6.47;3.43;;;;;;;3.59;60.91;98351.16;5000894;28;20581;-66
2021/04/03 00:50:22;;;;;;;4.30;3.30;;;;;;;3.47;61.06;98343.22;4999060;28;20215;-66
2021/04/03 00:52:49;;;;;;;5.27;3.57;;;;;;;3.47;60.43;98348.47;4995284;28;20234;-67
2021/04/03 00:55:16;;;;;;;4.87;3.67;;;;;;;3.40;60.93;98343.78;5000932;28;20751;-66
2021/04/03 00:57:43;;;;;;;3.53;3.20;;;;;;;3.40;61.34;98341.16;4998051;28;20212;-65
2021/04/03 01:00:12;;;;;;;3.70;3.40;;;;;;;3.29;61.13;98339.31;4999589;28;20400;-66
2021/04/03 01:02:40;;;;;;;5.13;3.33;;;;;;;3.24;61.35;98347.50;5001789;28;20708;-66
2021/04/03 01:05:10;;;;;;;4.57;3.30;;;;;;;3.24;61.56;98339.63;4997607;28;20212;-66
2021/04/03 01:07:37;;;;;;;6.17;3.43;;;;;;;3.25;61.30;98343.13;5001507;28;20212;-67
2021/04/03 01:10:05;;;;;;;4.23;3.17;;;;;;;3.22;60.99;98332.81;4996196;28;20457;-67
2021/04/03 01:12:39;;;;;;;4.93;3.27;;;;;;;3.21;60.90;98336.38;5001358;28;20697;-66
2021/04/03 01:15:10;;;;;;;3.83;3.40;;;;;;;3.21;61.29;98324.16;5000645;28;20208;-67
2021/04/03 01:17:47;;;;;;;6.00;3.00;;;;;;;3.28;60.64;98324.56;5000042;28;20689;-67
2021/04/03 01:20:31;;;;;;;4.13;3.30;;;;;;;3.37;60.32;98325.66;4998619;28;20204;-66
2021/04/03 01:23:41;;;;;;;5.93;3.17;;;;;;;3.29;61.11;98319.19;4999357;28;20247;-66
2021/04/03 01:26:26;;;;;;;4.90;3.30;;;;;;;3.27;61.61;98320.25;4998866;28;20213;-66
2021/04/03 01:29:37;;;;;;;3.83;3.33;;;;;;;3.15;61.91;98306.25;4999295;28;20204;-66
2021/04/03 01:32:06;;;;;;;3.30;2.93;;;;;;;3.26;62.14;98313.34;4957484;28;20193;-65
2021/04/03 01:34:37;;;;;;;3.97;3.43;;;;;;;3.24;61.99;98310.81;5000715;28;20820;-68
2021/04/03 01:37:06;;;;;;;3.47;3.10;;;;;;;3.22;62.29;98314.50;5003522;28;20609;-66
2021/04/03 01:39:34;;;;;;;3.87;3.53;;;;;;;3.30;61.69;98318.25;5000643;28;20208;-65
2021/04/03 01:42:04;;;;;;;4.50;3.20;;;;;;;3.39;60.59;98318.53;5003006;28;20251;-65
2021/04/03 01:44:33;;;;;;;6.13;3.47;;;;;;;3.16;61.58;98313.16;5002868;28;20232;-67
2021/04/03 01:47:01;;;;;;;3.30;3.00;;;;;;;3.37;61.12;98317.78;5004305;28;20404;-66
2021/04/03 01:49:30;;;;;;;4.43;3.37;;;;;;;3.25;61.30;98309.06;5004085;28;20209;-67
2021/04/03 01:51:58;;;;;;;5.00;3.20;;;;;;;3.20;61.96;98301.53;5000026;28;20664;-67
2021/04/03 01:54:26;;;;;;;4.30;3.33;;;;;;;3.23;62.43;98298.69;5000260;28;20230;-67
2021/04/03 01:56:56;;;;;;;3.40;3.10;;;;;;;3.39;61.41;98306.28;4999268;28;20208;-67
2021/04/03 01:59:23;;;;;;;3.13;2.83;;;;;;;3.15;62.32;98303.63;5001658;28;20205;-66
2021/04/03 02:01:53;;;;;;;3.90;3.60;;;;;;;3.23;61.73;98303.09;4998913;28;20276;-66
2021/04/03 02:04:21;;;;;;;3.93;3.23;;;;;;;3.25;62.30;98311.69;5001560;28;21029;-66
2021/04/03 02:06:49;;;;;;;4.87;3.23;;;;;;;3.16;62.35;98313.16;5003333;28;20212;-67
2021/04/03 02:09:16;;;;;;;4.37;3.17;;;;;;;3.27;62.07;98310.59;5002124;28;20205;-66
2021/04/03 02:11:44;;;;;;;3.40;3.10;;;;;;;3.36;61.34;98303.88;5001122;28;20201;-67
2021/04/03 02:14:12;;;;;;;3.27;3.00;;;;;;;3.36;62.01;98303.03;5003357;28;20224;-67
2021/04/03 02:16:39;;;;;;;3.57;2.90;;;;;;;3.37;61.75;98305.56;5003164;28;20213;-66
2021/04/03 02:19:08;;;;;;;3.77;3.47;;;;;;;3.28;62.39;98301.81;5004333;28;20219;-67
2021/04/03 02:21:35;;;;;;;5.10;3.27;;;;;;;3.25;62.49;98307.25;4998637;28;20237;-67
2021/04/03 02:24:04;;;;;;;4.93;3.00;;;;;;;3.19;62.30;98302.47;5001236;28;20701;-68
2021/04/03 02:26:31;;;;;;;3.70;3.40;;;;;;;3.34;62.37;98303.16;4999560;28;20213;-67
2021/04/03 02:28:58;;;;;;;4.60;3.53;;;;;;;3.25;62.68;98301.19;5002252;28;20209;-67
2021/04/03 02:31:26;;;;;;;2.90;2.70;;;;;;;3.26;62.56;98303.69;5000514;28;20585;-67
2021/04/03 02:33:53;;;;;;;5.37;3.27;;;;;;;3.45;61.63;98308.44;5001023;28;20236;-65
2021/04/03 02:36:20;;;;;;;5.90;3.43;;;;;;;3.38;62.08;98306.38;4997061;28;20221;-67
2021/04/03 02:38:48;;;;;;;4.20;3.30;;;;;;;3.30;62.16;98306.94;5003567;28;20201;-67
2021/04/03 02:41:18;;;;;;;4.73;3.43;;;;;;;3.30;62.25;98313.00;4996403;28;20216;-67
2021/04/03 02:43:50;;;;;;;5.10;3.30;;;;;;;3.23;63.24;98311.78;5001776;28;20236;-66
2021/04/03 02:46:21;;;;;;;3.60;3.30;;;;;;;3.27;62.56;98310.59;5003233;28;20201;-67
2021/04/03 02:48:51;;;;;;;5.70;4.10;;;;;;;3.36;62.50;98322.22;5000055;28;20673;-66
2021/04/03 02:51:23;;;;;;;4.07;3.10;;;;;;;3.28;63.33;98322.75;5001190;28;20231;-67
2021/04/03 02:53:51;;;;;;;4.20;3.60;;;;;;;3.29;63.08;98323.59;5002180;28;20942;-67
2021/04/03 02:56:19;;;;;;;3.40;3.10;;;;;;;3.32;63.42;98318.97;4999249;28;20239;-68
2021/04/03 02:58:47;;;;;;;3.40;3.13;;;;;;;3.30;63.47;98317.41;4999806;28;20613;-66
2021/04/03 03:01:15;;;;;;;3.40;3.13;;;;;;;3.28;63.75;98327.19;5002877;28;20209;-67
2021/04/03 03:03:42;;;;;;;3.60;3.30;;;;;;;3.17;63.86;98331.38;5001402;28;20232;-67
2021/04/03 03:06:10;;;;;;;4.70;3.50;;;;;;;3.22;64.24;98322.34;5002266;28;20213;-67
2021/04/03 03:08:38;;;;;;;3.00;2.80;;;;;;;3.22;64.59;98322.34;4995886;28;20220;-67
2021/04/03 03:11:05;;;;;;;4.27;3.87;;;;;;;3.23;64.44;98318.81;5001124;28;20215;-67
2021/04/03 03:13:34;;;;;;;3.70;3.40;;;;;;;3.36;64.36;98319.59;5002647;28;20712;-67
2021/04/03 03:16:03;;;;;;;4.27;3.53;;;;;;;3.34;63.51;98318.88;4998935;28;20216;-67
2021/04/03 03:18:30;;;;;;;4.80;3.67;;;;;;;3.14;65.08;98308.03;5000257;28;20213;-66
2021/04/03 03:20:57;;;;;;;3.70;3.40;;;;;;;3.07;65.86;98309.41;4996680;28;20213;-67
2021/04/03 03:23:25;;;;;;;6.97;3.90;;;;;;;3.02;65.91;98306.28;4998278;28;20232;-66
2021/04/03 03:25:55;;;;;;;3.53;3.23;;;;;;;3.08;66.09;98311.09;5001265;28;20236;-66
2021/04/03 03:28:23;;;;;;;5.17;3.93;;;;;;;3.04;66.18;98307.00;5000146;28;20211;-68
2021/04/03 03:30:50;;;;;;;5.57;3.70;;;;;;;3.09;66.51;98301.47;4997779;28;20682;-68
2021/04/03 03:33:17;;;;;;;3.73;3.33;;;;;;;3.21;65.84;98311.06;4998504;28;20617;-65
2021/04/03 03:35:44;;;;;;;3.63;3.33;;;;;;;3.27;66.03;98312.41;5001057;28;20209;-68
2021/04/03 03:38:11;;;;;;;4.13;3.83;;;;;;;3.28;65.44;98314.06;5002237;28;20681;-67
2021/04/03 03:40:38;;;;;;;4.43;3.70;;;;;;;3.22;66.21;98317.97;4997425;28;20555;-66
2021/04/03 03:43:09;;;;;;;4.50;4.00;;;;;;;3.26;65.63;98322.03;4999389;28;20243;-63
2021/04/03 03:45:36;;;;;;;9.67;4.63;;;;;;;3.33;66.29;98327.69;4996785;28;20236;-66
2021/04/03 03:48:04;;;;;;;4.60;4.20;;;;;;;3.25;65.91;98333.47;4995163;28;20488;-66
2021/04/03 03:50:31;;;;;;;5.57;3.80;;;;;;;3.08;67.13;98332.03;5000744;28;20331;-68
2021/04/03 03:52:58;;;;;;;7.03;4.00;;;;;;;3.16;66.94;98324.47;5000848;28;20229;-66
2021/04/03 03:55:25;;;;;;;5.00;4.37;;;;;;;3.11;67.56;98328.38;4995162;28;20278;-67
2021/04/03 03:57:52;;;;;;;4.13;3.73;;;;;;;3.06;67.84;98333.09;4997130;28;20727;-68
2021/04/03 04:00:20;;;;;;;3.80;3.60;;;;;;;2.96;68.27;98331.09;4997533;28;20204;-66
2021/04/03 04:02:47;;;;;;;5.23;3.60;;;;;;;3.00;67.94;98329.13;4999395;28;20724;-66
2021/04/03 04:05:15;;;;;;;5.00;4.50;;;;;;;2.93;67.81;98333.94;5000631;28;20393;-66
2021/04/03 04:07:42;;;;;;;8.13;6.80;;;;;;;2.84;68.23;98335.44;4999929;28;20695;-66
2021/04/03 04:10:12;;;;;;;10.30;5.30;;;;;;;2.77;69.10;98334.16;5001617;28;20217;-67
2021/04/03 04:12:39;;;;;;;7.17;6.57;;;;;;;2.80;69.09;98333.94;5001981;28;20629;-66
2021/04/03 04:15:07;;;;;;;4.80;4.40;;;;;;;2.86;68.14;98341.41;4996436;28;20205;-66
2021/04/03 04:17:34;;;;;;;4.17;3.87;;;;;;;2.93;68.46;98340.97;5002179;28;20209;-66
2021/04/03 04:20:02;;;;;;;4.07;3.77;;;;;;;2.87;68.81;98357.94;5000036;28;20214;-66
2021/04/03 04:22:29;;;;;;;6.57;5.73;;;;;;;2.79;68.46;98355.84;4998981;28;20236;-68
2021/04/03 04:24:56;;;;;;;5.97;5.07;;;;;;;2.76;69.52;98361.28;4997812;28;20901;-68
2021/04/03 04:27:23;;;;;;;8.00;4.70;;;;;;;2.72;68.98;98357.19;4999860;28;20209;-67
2021/04/03 04:29:50;;;;;;;8.37;6.00;;;;;;;2.64;69.20;98368.19;4997298;28;20208;-68
2021/04/03 04:32:17;;;;;;;7.03;6.43;;;;;;;2.61;69.55;98371.00;5000817;28;20724;-67
2021/04/03 04:34:44;;;;;;;6.40;3.43;;;;;;;2.59;69.31;98372.91;4998872;28;20520;-69
2021/04/03 04:37:12;;;;;;;4.87;4.43;;;;;;;2.56;70.40;98368.72;5000919;28;20810;-68
2021/04/03 04:39:40;;;;;;;3.60;3.30;;;;;;;2.59;69.84;98371.13;4997882;28;20210;-68
2021/04/03 04:42:07;;;;;;;4.53;3.73;;;;;;;2.64;69.94;98380.44;4999999;28;20237;-68
2021/04/03 04:44:34;;;;;;;5.20;4.43;;;;;;;2.49;70.73;98384.94;4999643;28;20204;-70
2021/04/03 04:47:01;;;;;;;4.53;3.27;;;;;;;2.52;70.24;98385.59;4999078;28;20220;-66
2021/04/03 04:49:27;;;;;;;5.33;3.77;;;;;;;2.45;70.91;98392.13;4997548;28;20331;-69
2021/04/03 04:51:55;;;;;;;4.10;3.50;;;;;;;2.41;70.98;98393.28;4997691;28;20584;-67
2021/04/03 04:54:21;;;;;;;4.43;4.00;;;;;;;2.36;70.79;98398.84;4994559;28;20747;-69
2021/04/03 04:56:49;;;;;;;5.13;3.20;;;;;;;2.35;71.45;98396.31;4991898;28;20201;-69
2021/04/03 04:59:16;;;;;;;3.97;3.67;;;;;;;2.37;71.06;98397.06;5000129;28;20228;-67
2021/04/03 05:01:43;;;;;;;3.90;3.13;;;;;;;2.32;71.46;98402.59;4999734;28;20540;-70
2021/04/03 05:04:10;;;;;;;5.27;4.20;;;;;;;2.34;71.35;98405.97;4997368;28;20240;-70
2021/04/03 05:06:37;;;;;;;4.23;3.87;;;;;;;2.30;72.09;98407.09;5003278;28;20208;-68
2021/04/03 05:09:04;;;;;;;4.90;4.40;;;;;;;2.55;70.50;98415.91;5000989;28;20216;-67
2021/04/03 05:11:31;;;;;;;3.87;3.67;;;;;;;2.68;70.09;98418.56;5004372;28;20201;-69
2021/04/03 05:13:59;;;;;;;5.20;4.70;;;;;;;2.59;70.51;98423.47;5000375;28;20235;-67
2021/04/03 05:16:26;;;;;;;3.30;3.10;;;;;;;2.58;70.61;98429.66;5004028;28;20600;-68
2021/04/03 05:18:53;;;;;;;4.87;4.23;;;;;;;2.67;70.32;98422.97;4998577;28;20216;-69
2021/04/03 05:21:20;;;;;;;5.13;4.70;;;;;;;2.58;70.13;98429.66;5000546;28;20228;-69
2021/04/03 05:23:47;;;;;;;3.83;3.60;;;;;;;2.62;70.99;98427.66;5002532;28;20225;-70
2021/04/03 05:26:14;;;;;;;3.77;3.50;;;;;;;2.59;71.12;98430.47;5001394;28;20212;-69
2021/04/03 05:28:41;;;;;;;4.43;3.73;;;;;;;2.73;70.26;98434.78;5002219;28;20209;-70
2021/04/03 05:31:09;;;;;;;4.87;4.10;;;;;;;2.60;70.91;98435.63;5003501;28;20213;-68
2021/04/03 05:33:36;;;;;;;3.97;3.60;;;;;;;2.66;70.91;98441.38;5003222;28;20240;-69
2021/04/03 05:36:03;;;;;;;8.67;4.10;;;;;;;2.72;70.53;98435.72;4997676;28;20216;-70
2021/04/03 05:38:31;;;;;;;4.57;4.17;;;;;;;2.70;70.89;98454.16;5002353;28;20205;-69
2021/04/03 05:40:58;;;;;;;4.77;4.47;;;;;;;2.86;70.84;98447.88;5000626;28;20585;-69
2021/04/03 05:43:25;;;;;;;9.33;7.63;;;;;;;2.81;70.54;98440.31;5000980;28;20232;-68
2021/04/03 05:45:53;;;;;;;5.47;4.97;;;;;;;2.77;70.88;98444.09;4997231;28;20643;-67
2021/04/03 05:48:22;;;;;;;5.50;5.10;;;;;;;2.82;71.71;98441.19;5001137;28;20519;-69
2021/04/03 05:50:51;;;;;;;10.87;4.00;;;;;;;2.96;73.00;98448.94;4999180;28;20212;-69
2021/04/03 05:53:18;;;;;;;4.47;4.07;;;;;;;2.97;70.98;98457.63;5001642;28;20229;-68
2021/04/03 05:55:45;;;;;;;5.30;4.00;;;;;;;3.01;70.53;98464.34;5002471;28;20213;-68
2021/04/03 05:58:13;;;;;;;5.57;3.40;;;;;;;3.03;70.89;98467.69;4999622;28;20596;-69
2021/04/03 06:00:40;;;;;;;4.37;3.80;;;;;;;2.99;70.55;98474.91;5003812;28;20204;-68
2021/04/03 06:03:07;;;;;;;5.53;3.90;;;;;;;2.99;70.68;98472.28;5001266;28;20237;-69
2021/04/03 06:05:36;;;;;;;5.60;3.60;;;;;;;3.04;71.09;98467.59;5002564;28;20208;-68
2021/04/03 06:08:03;;;;;;;4.53;3.67;;;;;;;3.04;71.09;98474.59;5001636;28;20212;-67
2021/04/03 06:10:30;;;;;;;5.70;4.23;;;;;;;3.17;70.40;98464.94;5004335;28;20684;-68
2021/04/03 06:12:58;;;;;;;5.83;4.00;;;;;;;3.29;69.92;98478.16;4999787;28;20225;-68
2021/04/03 06:15:35;;;;;;;7.23;3.77;;;;;;;3.31;69.95;98479.72;5001438;28;20217;-67
2021/04/03 06:18:08;;;;;;;4.30;3.90;;;;;;;3.39;69.68;98483.59;5003005;28;20681;-68
2021/04/03 06:20:38;;;;;;;6.90;3.67;;;;;;;3.35;69.41;98482.13;4998900;28;20244;-69
2021/04/03 06:23:06;;;;;;;4.00;3.60;;;;;;;3.26;70.32;98487.06;5000600;28;20233;-69
2021/04/03 06:25:52;;;;;;;4.30;3.60;;;;;;;3.35;70.04;98490.84;4998571;28;20633;-68
2021/04/03 06:28:25;;;;;;;6.03;4.00;;;;;;;3.35;70.34;98488.22;5002001;28;20205;-69
2021/04/03 06:30:55;;;;;;;7.10;4.17;;;;;;;3.52;69.80;98491.44;5000988;28;20204;-68
2021/04/03 06:33:22;;;;;;;5.23;4.20;;;;;;;3.39;69.74;98489.69;5001850;28;20229;-67
2021/04/03 06:38:42;;;;;;;4.67;3.20;;;;;;;3.34;70.32;98483.91;5093794;27;20910;-69
2021/04/03 06:41:17;;;;;;;9.17;4.50;;;;;;;3.26;70.36;98488.84;5078153;28;20198;-71
2021/04/03 06:44:00;;;;;;;4.57;4.17;;;;;;;3.31;70.83;98489.38;5072479;28;20665;-70
2021/04/03 06:46:27;;;;;;;4.30;3.77;;;;;;;3.38;70.86;98493.25;5076955;28;20225;-69
2021/04/03 06:48:56;;;;;;;5.60;4.23;;;;;;;3.35;70.20;98485.59;5077838;28;20198;-71
2021/04/03 06:51:24;;;;;;;4.60;3.83;;;;;;;3.41;70.24;98490.41;5077682;28;20612;-70
2021/04/03 06:53:53;;;;;;;4.87;4.10;;;;;;;3.63;69.32;98488.94;5078512;28;20714;-70
2021/04/03 06:56:22;;;;;;;4.50;3.87;;;;;;;3.51;69.78;98498.47;5076010;28;20532;-70
2021/04/03 06:58:53;;;;;;;5.50;3.93;;;;;;;3.59;69.02;98500.53;5078256;28;20214;-68
2021/04/03 07:01:21;;;;;;;5.80;3.70;;;;;;;3.76;68.96;98496.75;5070320;28;20221;-69
2021/04/03 07:03:52;;;;;;;5.30;4.43;;;;;;;3.99;67.87;98504.78;5070162;28;20230;-68
2021/04/03 07:06:22;;;;;;;5.30;3.63;;;;;;;3.90;67.42;98507.09;5075305;28;20403;-69
2021/04/03 07:08:50;;;;;;;6.17;3.73;;;;;;;3.96;67.94;98515.47;5072355;28;20206;-69
2021/04/03 07:11:18;;;;;;;8.87;4.60;;;;;;;3.97;67.66;98517.16;5073124;28;20214;-69
2021/04/03 07:13:45;;;;;;;4.30;3.90;;;;;;;4.20;67.47;98524.22;5075631;28;20226;-69
2021/04/03 07:16:13;;;;;;;6.53;3.97;;;;;;;4.29;66.96;98520.09;5076105;28;20203;-70
2021/04/03 07:18:41;;;;;;;6.03;4.30;;;;;;;4.33;66.82;98520.72;5072853;28;20241;-70
2021/04/03 07:21:08;;;;;;;7.20;3.77;;;;;;;4.24;67.00;98522.19;5076948;28;20206;-70
2021/04/03 07:23:36;;;;;;;6.97;4.13;;;;;;;4.47;66.19;98522.31;5069838;28;20650;-69
2021/04/03 07:26:03;;;;;;;5.43;3.87;;;;;;;4.39;66.11;98515.00;5077252;28;20210;-70
2021/04/03 07:28:38;;;;;;;6.93;4.47;;;;;;;4.43;65.95;98529.56;5076214;28;20249;-70
2021/04/03 07:31:05;;;;;;;6.10;4.20;;;;;;;4.38;65.75;98533.50;5075755;28;20201;-70
2021/04/03 07:33:33;;;;;;;4.67;4.07;;;;;;;4.46;65.55;98536.41;5070564;28;20230;-68
2021/04/03 07:36:01;;;;;;;5.47;3.77;;;;;;;4.56;64.50;98531.31;5073851;28;20202;-71
2021/04/03 07:38:30;;;;;;;5.37;3.80;;;;;;;4.73;64.36;98532.69;5074030;28;20228;-71
2021/04/03 07:41:02;;;;;;;6.67;4.17;;;;;;;4.93;63.86;98539.09;5075961;28;20224;-70
2021/04/03 07:43:40;;;;;;;4.80;4.30;;;;;;;4.78;63.97;98548.97;5070423;28;20254;-70
2021/04/03 07:46:10;;;;;;;4.17;3.83;;;;;;;4.82;64.15;98545.16;5070476;28;20249;-70
2021/04/03 07:48:51;;;;;;;4.40;4.00;;;;;;;4.87;64.00;98553.53;5068268;28;20207;-71
2021/04/03 07:51:51;;;;;;;4.40;3.83;;;;;;;4.96;62.93;98556.41;5061132;28;20234;-71
2021/04/03 07:54:32;;;;;;;4.87;3.90;;;;;;;4.78;63.21;98556.84;5020492;28;20228;-71
2021/04/03 07:57:04;;;;;;;5.67;4.30;;;;;;;4.96;63.31;98561.66;5011595;28;20234;-71
2021/04/03 07:59:51;;;;;;;5.40;4.73;;;;;;;5.04;62.47;98561.94;5040313;28;20332;-70
2021/04/03 08:02:20;;;;;;;6.70;4.53;;;;;;;4.99;62.42;98564.91;5063194;28;20210;-70
2021/04/03 08:04:47;;;;;;;5.57;4.07;;;;;;;4.84;62.35;98563.41;5058445;28;20202;-68
2021/04/03 08:07:14;;;;;;;6.73;4.20;;;;;;;4.99;62.50;98570.16;5058092;28;20710;-67
2021/04/03 08:09:41;;;;;;;5.70;3.87;;;;;;;5.06;62.41;98566.13;5060452;28;20203;-68
2021/04/03 08:12:09;;;;;;;6.90;4.13;;;;;;;4.87;62.90;98568.44;5061922;28;20206;-70
2021/04/03 08:14:37;;;;;;;9.27;4.20;;;;;;;5.06;62.06;98573.16;5059168;28;20210;-68
2021/04/03 08:17:05;;;;;;;5.73;3.73;;;;;;;5.43;60.69;98573.00;5051428;28;20227;-69
2021/04/03 08:19:34;;;;;;;4.40;3.77;;;;;;;5.73;59.55;98583.94;5053464;28;20210;-69
2021/04/03 08:22:02;;;;;;;6.77;3.83;;;;;;;5.79;55.75;98589.53;5058088;28;20230;-69
2021/04/03 08:24:29;;;;;;;8.50;4.03;;;;;;;5.80;56.45;98591.22;5054009;28;20219;-68
2021/04/03 08:26:56;;;;;;;5.83;3.63;;;;;;;5.97;55.63;98583.81;5060384;28;20204;-69
2021/04/03 08:29:25;;;;;;;7.10;3.60;;;;;;;6.22;54.71;98584.53;5057362;28;20199;-66
2021/04/03 08:31:52;;;;;;;4.10;3.20;;;;;;;6.29;53.67;98580.47;5058958;28;20217;-63
2021/04/03 08:34:21;;;;;;;2.70;2.50;;;;;;;6.35;50.96;98587.03;5060148;28;20318;-63
2021/04/03 08:36:48;;;;;;;4.50;3.13;;;;;;;6.13;51.97;98588.75;5054283;28;20215;-66
2021/04/03 08:39:17;;;;;;;8.00;3.70;;;;;;;6.37;51.98;98585.09;5054241;28;20248;-65
2021/04/03 08:41:47;;;;;;;4.33;3.27;;;;;;;5.86;52.24;98596.94;5051824;28;20215;-64
2021/04/03 08:44:16;;;;;;;4.37;3.00;;;;;;;6.00;52.41;98598.50;5054464;28;20816;-65
2021/04/03 08:46:43;;;;;;;3.93;2.90;;;;;;;5.96;52.32;98605.81;5062611;28;20213;-65
2021/04/03 08:49:11;;;;;;;4.03;2.77;;;;;;;6.22;50.67;98608.22;5056258;28;20206;-65
2021/04/03 08:51:39;;;;;;;5.70;2.90;;;;;;;6.31;49.92;98591.72;5060102;28;20211;-66
2021/04/03 08:54:06;;;;;;;2.57;2.37;;;;;;;6.42;50.17;98598.72;5055287;28;20232;-67
2021/04/03 08:56:35;;;;;;;3.00;2.43;;;;;;;6.54;49.90;98604.00;5060866;28;20203;-68
2021/04/03 08:59:05;;;;;;;2.90;2.70;;;;;;;6.78;49.35;98603.81;5060760;28;20398;-70
2021/04/03 09:01:35;;;;;;;3.97;2.87;;;;;;;6.37;50.41;98595.63;5057153;28;20203;-69
2021/04/03 09:04:07;;;;;;;2.97;2.53;;;;;;;6.35;51.08;98608.94;5057860;28;20726;-67
2021/04/03 09:06:43;;;;;;;6.50;3.27;;;;;;;6.18;50.76;98617.31;5060341;28;20203;-67
2021/04/03 09:09:11;;;;;;;3.30;3.03;;;;;;;6.09;51.27;98618.91;5060292;28;20314;-68
2021/04/03 09:11:39;;;;;;;6.57;5.87;;;;;;;6.63;49.88;98612.00;5057990;28;20210;-70
2021/04/03 09:14:06;;;;;;;3.10;2.80;;;;;;;6.61;50.18;98610.44;5058668;28;20290;-68
2021/04/03 09:16:37;;;;;;;3.33;3.03;;;;;;;6.61;49.98;98619.16;5058070;28;20252;-68
2021/04/03 09:19:04;;;;;;;3.13;2.57;;;;;;;7.10;49.76;98621.44;5056422;28;20243;-70
2021/04/03 09:21:32;;;;;;;3.00;2.80;;;;;;;7.18;48.51;98611.06;5055081;28;20204;-71
2021/04/03 09:24:00;;;;;;;4.27;3.87;;;;;;;7.46;47.59;98618.47;5052765;28;20598;-68
2021/04/03 09:26:31;;;;;;;4.63;3.63;;;;;;;7.50;47.63;98625.16;5057745;28;20203;-69
2021/04/03 09:29:05;;;;;;;5.10;3.20;;;;;;;7.60;48.04;98620.81;5058794;28;20600;-69
2021/04/03 09:31:38;;;;;;;3.20;3.00;;;;;;;7.21;48.89;98621.38;5058711;28;20844;-68
2021/04/03 09:34:05;;;;;;;4.20;3.80;;;;;;;7.38;48.94;98630.50;5060110;28;20226;-70
2021/04/03 09:36:41;;;;;;;3.60;3.00;;;;;;;7.24;48.91;98620.28;5059440;28;20210;-69
2021/04/03 09:39:14;;;;;;;3.30;3.00;;;;;;;6.81;49.99;98632.53;5062150;28;20199;-71
2021/04/03 09:41:46;;;;;;;3.80;3.50;;;;;;;6.90;49.45;98630.97;5060519;28;20202;-72
2021/04/03 09:44:13;;;;;;;3.73;3.33;;;;;;;6.57;48.39;98640.63;5061857;28;20658;-69
2021/04/03 09:46:41;;;;;;;3.20;2.87;;;;;;;6.64;48.73;98634.75;5059852;28;20287;-70
2021/04/03 09:49:09;;;;;;;5.13;3.00;;;;;;;6.74;48.31;98634.00;5061823;28;20203;-69
2021/04/03 09:51:37;;;;;;;3.20;2.97;;;;;;;6.76;46.54;98639.97;5060396;28;20293;-69
2021/04/03 09:54:04;;;;;;;4.83;2.83;;;;;;;7.12;46.59;98632.69;5055525;28;20230;-67
2021/04/03 09:56:32;;;;;;;2.90;2.70;;;;;;;7.46;47.52;98637.78;5056037;28;20209;-67
2021/04/03 09:59:00;;;;;;;3.90;2.70;;;;;;;7.28;45.92;98634.03;5051154;28;20226;-66
2021/04/03 10:01:27;;;;;;;3.53;2.30;;;;;;;7.73;45.58;98636.41;5050336;28;20213;-66
2021/04/03 10:03:55;;;;;;;4.00;3.20;;;;;;;7.64;46.11;98640.69;5055250;28;20223;-67
2021/04/03 10:06:23;;;;;;;3.73;2.67;;;;;;;7.58;46.31;98640.34;5061107;28;20527;-67
2021/04/03 10:08:50;;;;;;;6.40;3.27;;;;;;;7.55;46.44;98635.34;5060822;28;20318;-67
2021/04/03 10:11:17;;;;;;;3.30;3.03;;;;;;;7.13;47.53;98644.88;5060394;28;20202;-69
2021/04/03 10:13:45;;;;;;;3.77;2.90;;;;;;;7.12;48.11;98639.72;5057142;28;20230;-66
2021/04/03 10:16:12;;;;;;;2.13;2.03;;;;;;;7.32;47.18;98638.94;5058013;28;20202;-66
2021/04/03 10:18:39;;;;;;;2.57;2.37;;;;;;;7.21;46.51;98642.47;5060992;28;20223;-65
2021/04/03 10:21:07;;;;;;;7.10;2.80;;;;;;;7.28;46.74;98634.88;5057624;28;20209;-70
2021/04/03 10:23:35;;;;;;;4.23;2.47;;;;;;;7.08;46.48;98641.81;5058998;28;20258;-69
2021/04/03 10:26:02;;;;;;;4.17;2.77;;;;;;;6.90;47.22;98637.06;5061086;28;20213;-70
2021/04/03 10:28:29;;;;;;;2.67;2.40;;;;;;;6.66;47.45;98645.16;5061070;28;20250;-71
2021/04/03 10:30:57;;;;;;;2.97;2.70;;;;;;;6.71;47.88;98645.59;5057060;28;20206;-68
2021/04/03 10:33:24;;;;;;;4.30;2.37;;;;;;;7.01;46.72;98637.97;5060719;28;20223;-68
2021/04/03 10:35:51;;;;;;;4.97;2.90;;;;;;;7.43;46.39;98635.41;5057425;28;20552;-70
2021/04/03 10:38:18;;;;;;;2.90;2.70;;;;;;;7.71;45.31;98632.25;5060936;28;20226;-71
2021/04/03 10:40:45;;;;;;;5.03;2.93;;;;;;;8.31;44.29;98628.91;5057700;28;20203;-70
2021/04/03 10:43:13;;;;;;;3.27;3.03;;;;;;;8.82;42.72;98625.31;5057516;28;20223;-70
2021/04/03 10:45:40;;;;;;;2.90;2.60;;;;;;;9.44;42.34;98632.13;5061005;28;20941;-69
2021/04/03 10:48:08;;;;;;;3.43;2.80;;;;;;;9.58;42.70;98630.88;5055632;28;20207;-68
2021/04/03 10:50:35;;;;;;;3.37;2.87;;;;;;;9.67;41.68;98626.53;5057286;28;20214;-68
2021/04/03 10:53:03;;;;;;;2.97;2.50;;;;;;;9.64;42.51;98630.28;5056097;28;20224;-68
2021/04/03 10:55:31;;;;;;;2.53;2.43;;;;;;;9.83;40.07;98637.34;5053258;28;20686;-68
2021/04/03 10:57:58;;;;;;;3.70;2.50;;;;;;;8.61;42.15;98619.28;5051299;28;20470;-67
2021/04/03 11:00:26;;;;;;;2.23;2.13;;;;;;;8.23;42.78;98632.22;5055309;28;20234;-70
2021/04/03 11:02:53;;;;;;;2.93;2.50;;;;;;;8.01;43.58;98625.31;5060774;28;20231;-69
2021/04/03 11:05:21;;;;;;;4.47;2.70;;;;;;;7.29;45.32;98622.53;5060195;28;20211;-70
2021/04/03 11:07:48;;;;;;;3.30;3.00;;;;;;;7.76;44.69;98628.22;5060699;28;20206;-70
2021/04/03 11:10:15;;;;;;;7.20;3.03;;;;;;;8.03;43.94;98629.50;5061283;28;20202;-70
2021/04/03 11:12:42;;;;;;;2.37;2.20;;;;;;;9.00;41.34;98616.69;5060463;28;20231;-70
2021/04/03 11:15:10;;;;;;;5.37;2.60;;;;;;;9.42;40.76;98612.91;5056555;28;20203;-72
2021/04/03 11:17:38;;;;;;;4.30;2.60;;;;;;;10.03;38.86;98602.84;5057450;28;20342;-70
2021/04/03 11:20:06;;;;;;;3.23;2.53;;;;;;;10.40;39.21;98609.97;5059926;28;20203;-67
2021/04/03 11:22:34;;;;;;;2.53;2.30;;;;;;;10.40;38.30;98609.97;5056340;28;20707;-67
2021/04/03 11:25:01;;;;;;;3.03;2.27;;;;;;;9.93;38.90;98613.50;5063525;28;20207;-67
2021/04/03 11:27:28;;;;;;;4.10;2.60;;;;;;;9.25;38.73;98612.63;5061665;28;20221;-67
2021/04/03 11:29:55;;;;;;;5.93;3.50;;;;;;;8.60;41.60;98614.97;5064276;28;20214;-67
2021/04/03 11:32:23;;;;;;;3.40;2.60;;;;;;;8.21;42.35;98618.31;5064889;28;20206;-70
2021/04/03 11:34:50;;;;;;;3.00;2.70;;;;;;;8.10;43.00;98616.59;5062015;28;20210;-68
2021/04/03 11:37:17;;;;;;;2.70;2.47;;;;;;;7.99;42.51;98616.72;5061922;28;20206;-68
2021/04/03 11:39:45;;;;;;;4.13;2.70;;;;;;;8.06;42.60;98616.03;5064644;28;20574;-67
2021/04/03 11:42:12;;;;;;;3.03;2.73;;;;;;;8.14;42.70;98617.16;5061196;28;20782;-68
2021/04/03 11:44:39;;;;;;;3.80;2.80;;;;;;;8.17;42.92;98617.75;5063353;28;20483;-68
2021/04/03 11:47:06;;;;;;;4.40;2.60;;;;;;;8.32;43.06;98612.94;5063968;28;20209;-66
2021/04/03 11:49:33;;;;;;;7.67;6.43;;;;;;;8.03;42.07;98616.28;5059883;28;20219;-67
2021/04/03 11:52:00;;;;;;;4.43;3.50;;;;;;;8.33;41.24;98613.75;5063734;28;20207;-68